sensor_id;sensor_type;location;lat;lon;timestamp;P1;durP1;ratioP1;P2;durP2;ratioP2
31126;SDS011;17775;57.948;12.514;2023-03-21T00:01:40;4.18;;;2.05;;
31126;SDS011;17775;57.948;12.514;2023-03-21T00:04:06;3.42;;;1.73;;
31126;SDS011;17775;57.948;12.514;2023-03-21T00:06:33;3.75;;;1.77;;
31126;SDS011;17775;57.948;12.514;2023-03-21T00:09:01;4.78;;;1.98;;
31126;SDS011;17775;57.948;12.514;2023-03-21T00:11:28;4.20;;;1.95;;
31126;SDS011;17775;57.948;12.514;2023-03-21T00:13:54;3.75;;;1.80;;
31126;SDS011;17775;57.948;12.514;2023-03-21T00:16:28;3.55;;;1.40;;
31126;SDS011;17775;57.948;12.514;2023-03-21T00:18:57;3.72;;;1.98;;
31126;SDS011;17775;57.948;12.514;2023-03-21T00:21:24;3.60;;;1.95;;
31126;SDS011;17775;57.948;12.514;2023-03-21T00:24:13;3.25;;;1.67;;
31126;SDS011;17775;57.948;12.514;2023-03-21T00:26:39;5.90;;;2.17;;
31126;SDS011;17775;57.948;12.514;2023-03-21T00:29:06;4.68;;;1.98;;
31126;SDS011;17775;57.948;12.514;2023-03-21T00:31:32;4.65;;;2.20;;
31126;SDS011;17775;57.948;12.514;2023-03-21T00:33:59;4.25;;;1.95;;
31126;SDS011;17775;57.948;12.514;2023-03-21T00:36:26;5.38;;;2.72;;
31126;SDS011;17775;57.948;12.514;2023-03-21T00:38:53;4.40;;;2.25;;
31126;SDS011;17775;57.948;12.514;2023-03-21T00:41:20;5.53;;;2.60;;
31126;SDS011;17775;57.948;12.514;2023-03-21T00:44:06;3.15;;;1.80;;
31126;SDS011;17775;57.948;12.514;2023-03-21T00:46:32;4.10;;;2.13;;
31126;SDS011;17775;57.948;12.514;2023-03-21T00:49:12;5.63;;;2.72;;
31126;SDS011;17775;57.948;12.514;2023-03-21T00:51:38;4.28;;;2.35;;
31126;SDS011;17775;57.948;12.514;2023-03-21T00:54:05;4.47;;;2.17;;
31126;SDS011;17775;57.948;12.514;2023-03-21T00:56:32;4.38;;;2.20;;
31126;SDS011;17775;57.948;12.514;2023-03-21T00:58:59;4.35;;;2.30;;
31126;SDS011;17775;57.948;12.514;2023-03-21T01:01:26;4.75;;;2.17;;
31126;SDS011;17775;57.948;12.514;2023-03-21T01:03:57;5.38;;;2.00;;
31126;SDS011;17775;57.948;12.514;2023-03-21T01:06:31;5.05;;;2.17;;
31126;SDS011;17775;57.948;12.514;2023-03-21T01:08:58;5.75;;;2.80;;
31126;SDS011;17775;57.948;12.514;2023-03-21T01:11:25;3.83;;;2.17;;
31126;SDS011;17775;57.948;12.514;2023-03-21T01:13:52;4.45;;;2.40;;
31126;SDS011;17775;57.948;12.514;2023-03-21T01:16:39;3.88;;;1.98;;
31126;SDS011;17775;57.948;12.514;2023-03-21T01:19:06;4.28;;;2.30;;
31126;SDS011;17775;57.948;12.514;2023-03-21T01:21:49;3.47;;;1.88;;
31126;SDS011;17775;57.948;12.514;2023-03-21T01:24:15;3.92;;;1.95;;
31126;SDS011;17775;57.948;12.514;2023-03-21T01:26:42;3.97;;;1.95;;
31126;SDS011;17775;57.948;12.514;2023-03-21T01:29:08;5.60;;;3.05;;
31126;SDS011;17775;57.948;12.514;2023-03-21T01:31:35;4.10;;;1.77;;
31126;SDS011;17775;57.948;12.514;2023-03-21T01:34:01;3.60;;;2.00;;
31126;SDS011;17775;57.948;12.514;2023-03-21T01:36:28;4.43;;;2.00;;
31126;SDS011;17775;57.948;12.514;2023-03-21T01:38:54;2.90;;;1.60;;
31126;SDS011;17775;57.948;12.514;2023-03-21T01:43:53;3.17;;;1.55;;
31126;SDS011;17775;57.948;12.514;2023-03-21T01:49:32;4.75;;;1.80;;
31126;SDS011;17775;57.948;12.514;2023-03-21T01:52:02;3.45;;;1.58;;
31126;SDS011;17775;57.948;12.514;2023-03-21T01:54:39;5.35;;;1.92;;
31126;SDS011;17775;57.948;12.514;2023-03-21T01:57:11;3.13;;;1.90;;
31126;SDS011;17775;57.948;12.514;2023-03-21T01:59:42;2.28;;;1.48;;
31126;SDS011;17775;57.948;12.514;2023-03-21T02:02:10;3.42;;;1.60;;
31126;SDS011;17775;57.948;12.514;2023-03-21T02:04:37;2.80;;;1.40;;
31126;SDS011;17775;57.948;12.514;2023-03-21T02:07:08;3.90;;;2.10;;
31126;SDS011;17775;57.948;12.514;2023-03-21T02:09:37;3.40;;;1.80;;
31126;SDS011;17775;57.948;12.514;2023-03-21T02:12:06;4.70;;;2.08;;
31126;SDS011;17775;57.948;12.514;2023-03-21T02:14:34;2.70;;;1.42;;
31126;SDS011;17775;57.948;12.514;2023-03-21T02:19:37;3.58;;;1.80;;
31126;SDS011;17775;57.948;12.514;2023-03-21T02:28:21;4.03;;;1.88;;
31126;SDS011;17775;57.948;12.514;2023-03-21T02:52:10;4.07;;;1.80;;
31126;SDS011;17775;57.948;12.514;2023-03-21T02:54:50;3.65;;;1.92;;
31126;SDS011;17775;57.948;12.514;2023-03-21T02:57:17;3.35;;;1.58;;
31126;SDS011;17775;57.948;12.514;2023-03-21T02:59:45;4.90;;;2.00;;
31126;SDS011;17775;57.948;12.514;2023-03-21T03:02:24;2.88;;;1.58;;
31126;SDS011;17775;57.948;12.514;2023-03-21T03:04:51;2.63;;;1.70;;
31126;SDS011;17775;57.948;12.514;2023-03-21T03:22:47;5.03;;;1.85;;
31126;SDS011;17775;57.948;12.514;2023-03-21T03:25:16;4.40;;;2.10;;
31126;SDS011;17775;57.948;12.514;2023-03-21T03:28:01;3.47;;;1.77;;
31126;SDS011;17775;57.948;12.514;2023-03-21T03:30:29;4.38;;;1.80;;
31126;SDS011;17775;57.948;12.514;2023-03-21T03:33:09;3.08;;;1.98;;
31126;SDS011;17775;57.948;12.514;2023-03-21T03:35:36;3.90;;;1.90;;
31126;SDS011;17775;57.948;12.514;2023-03-21T03:38:04;3.25;;;1.80;;
31126;SDS011;17775;57.948;12.514;2023-03-21T03:40:44;8.85;;;1.30;;
31126;SDS011;17775;57.948;12.514;2023-03-21T03:43:17;2.75;;;1.58;;
31126;SDS011;17775;57.948;12.514;2023-03-21T03:45:46;2.17;;;1.20;;
31126;SDS011;17775;57.948;12.514;2023-03-21T03:48:19;2.88;;;1.65;;
31126;SDS011;17775;57.948;12.514;2023-03-21T03:50:52;4.07;;;2.15;;
31126;SDS011;17775;57.948;12.514;2023-03-21T03:56:05;6.30;;;2.30;;
31126;SDS011;17775;57.948;12.514;2023-03-21T03:58:33;5.10;;;2.42;;
31126;SDS011;17775;57.948;12.514;2023-03-21T04:01:10;5.43;;;2.10;;
31126;SDS011;17775;57.948;12.514;2023-03-21T04:03:38;3.90;;;2.08;;
31126;SDS011;17775;57.948;12.514;2023-03-21T04:06:16;3.65;;;1.92;;
31126;SDS011;17775;57.948;12.514;2023-03-21T04:08:43;5.07;;;2.60;;
31126;SDS011;17775;57.948;12.514;2023-03-21T04:11:11;4.30;;;2.08;;
31126;SDS011;17775;57.948;12.514;2023-03-21T04:13:38;5.15;;;2.08;;
31126;SDS011;17775;57.948;12.514;2023-03-21T04:16:05;4.30;;;2.10;;
31126;SDS011;17775;57.948;12.514;2023-03-21T04:18:32;7.07;;;2.55;;
31126;SDS011;17775;57.948;12.514;2023-03-21T04:20:58;25.15;;;4.68;;
31126;SDS011;17775;57.948;12.514;2023-03-21T04:23:25;31.65;;;4.30;;
31126;SDS011;17775;57.948;12.514;2023-03-21T04:25:51;30.15;;;3.38;;
31126;SDS011;17775;57.948;12.514;2023-03-21T04:28:22;51.13;;;4.07;;
31126;SDS011;17775;57.948;12.514;2023-03-21T04:30:48;30.95;;;3.55;;
31126;SDS011;17775;57.948;12.514;2023-03-21T04:33:30;39.10;;;4.40;;
31126;SDS011;17775;57.948;12.514;2023-03-21T04:35:56;32.10;;;3.70;;
31126;SDS011;17775;57.948;12.514;2023-03-21T04:38:24;36.92;;;3.58;;
31126;SDS011;17775;57.948;12.514;2023-03-21T04:40:56;70.28;;;5.15;;
31126;SDS011;17775;57.948;12.514;2023-03-21T04:43:22;47.00;;;4.93;;
31126;SDS011;17775;57.948;12.514;2023-03-21T04:45:49;38.97;;;3.58;;
31126;SDS011;17775;57.948;12.514;2023-03-21T04:48:16;38.22;;;4.10;;
31126;SDS011;17775;57.948;12.514;2023-03-21T04:50:45;23.02;;;3.20;;
31126;SDS011;17775;57.948;12.514;2023-03-21T04:53:12;28.00;;;3.58;;
31126;SDS011;17775;57.948;12.514;2023-03-21T04:55:38;15.77;;;3.10;;
31126;SDS011;17775;57.948;12.514;2023-03-21T04:58:05;12.88;;;3.08;;
31126;SDS011;17775;57.948;12.514;2023-03-21T05:00:32;20.38;;;3.50;;
31126;SDS011;17775;57.948;12.514;2023-03-21T05:03:06;12.48;;;3.50;;
31126;SDS011;17775;57.948;12.514;2023-03-21T05:05:35;11.25;;;3.20;;
31126;SDS011;17775;57.948;12.514;2023-03-21T05:08:02;10.43;;;3.08;;
31126;SDS011;17775;57.948;12.514;2023-03-21T05:10:29;12.10;;;3.05;;
31126;SDS011;17775;57.948;12.514;2023-03-21T05:12:58;7.28;;;3.00;;
31126;SDS011;17775;57.948;12.514;2023-03-21T05:15:25;7.72;;;3.25;;
31126;SDS011;17775;57.948;12.514;2023-03-21T05:17:51;6.57;;;2.97;;
31126;SDS011;17775;57.948;12.514;2023-03-21T05:20:18;7.68;;;3.35;;
31126;SDS011;17775;57.948;12.514;2023-03-21T05:22:45;7.85;;;3.60;;
31126;SDS011;17775;57.948;12.514;2023-03-21T05:25:15;7.97;;;4.00;;
31126;SDS011;17775;57.948;12.514;2023-03-21T05:27:43;7.88;;;3.40;;
31126;SDS011;17775;57.948;12.514;2023-03-21T05:30:12;5.15;;;2.63;;
31126;SDS011;17775;57.948;12.514;2023-03-21T05:32:39;5.53;;;2.53;;
31126;SDS011;17775;57.948;12.514;2023-03-21T05:35:06;5.70;;;2.97;;
31126;SDS011;17775;57.948;12.514;2023-03-21T05:37:32;6.13;;;2.70;;
31126;SDS011;17775;57.948;12.514;2023-03-21T05:39:59;5.45;;;2.78;;
31126;SDS011;17775;57.948;12.514;2023-03-21T05:42:25;7.10;;;2.88;;
31126;SDS011;17775;57.948;12.514;2023-03-21T05:44:52;2.65;;;1.80;;
31126;SDS011;17775;57.948;12.514;2023-03-21T05:47:18;3.15;;;1.73;;
31126;SDS011;17775;57.948;12.514;2023-03-21T05:49:47;6.50;;;2.58;;
31126;SDS011;17775;57.948;12.514;2023-03-21T05:52:15;3.30;;;1.60;;
31126;SDS011;17775;57.948;12.514;2023-03-21T05:54:41;2.38;;;1.52;;
31126;SDS011;17775;57.948;12.514;2023-03-21T05:57:08;4.00;;;1.70;;
31126;SDS011;17775;57.948;12.514;2023-03-21T05:59:35;3.92;;;2.10;;
31126;SDS011;17775;57.948;12.514;2023-03-21T06:02:01;4.47;;;1.92;;
31126;SDS011;17775;57.948;12.514;2023-03-21T06:04:28;2.08;;;1.30;;
31126;SDS011;17775;57.948;12.514;2023-03-21T06:06:54;2.50;;;1.38;;
31126;SDS011;17775;57.948;12.514;2023-03-21T06:09:21;2.15;;;1.30;;
31126;SDS011;17775;57.948;12.514;2023-03-21T06:11:49;2.17;;;1.30;;
31126;SDS011;17775;57.948;12.514;2023-03-21T06:14:16;2.47;;;1.17;;
31126;SDS011;17775;57.948;12.514;2023-03-21T06:16:43;1.73;;;1.23;;
31126;SDS011;17775;57.948;12.514;2023-03-21T06:19:10;2.53;;;1.27;;
31126;SDS011;17775;57.948;12.514;2023-03-21T06:21:36;2.45;;;1.00;;
31126;SDS011;17775;57.948;12.514;2023-03-21T06:24:03;2.42;;;1.50;;
31126;SDS011;17775;57.948;12.514;2023-03-21T06:26:29;1.63;;;1.00;;
31126;SDS011;17775;57.948;12.514;2023-03-21T06:28:56;1.33;;;0.90;;
31126;SDS011;17775;57.948;12.514;2023-03-21T06:31:22;2.10;;;1.40;;
31126;SDS011;17775;57.948;12.514;2023-03-21T06:33:50;1.83;;;1.17;;
31126;SDS011;17775;57.948;12.514;2023-03-21T06:36:17;4.13;;;1.67;;
31126;SDS011;17775;57.948;12.514;2023-03-21T06:38:44;3.63;;;1.80;;
31126;SDS011;17775;57.948;12.514;2023-03-21T06:41:12;2.00;;;1.40;;
31126;SDS011;17775;57.948;12.514;2023-03-21T06:43:38;2.58;;;1.50;;
31126;SDS011;17775;57.948;12.514;2023-03-21T06:46:05;3.22;;;1.80;;
31126;SDS011;17775;57.948;12.514;2023-03-21T06:48:32;2.58;;;1.70;;
31126;SDS011;17775;57.948;12.514;2023-03-21T06:50:58;2.65;;;1.50;;
31126;SDS011;17775;57.948;12.514;2023-03-21T06:53:25;2.30;;;1.50;;
31126;SDS011;17775;57.948;12.514;2023-03-21T06:55:55;2.20;;;1.50;;
31126;SDS011;17775;57.948;12.514;2023-03-21T06:58:22;2.20;;;1.48;;
31126;SDS011;17775;57.948;12.514;2023-03-21T07:00:49;2.97;;;1.67;;
31126;SDS011;17775;57.948;12.514;2023-03-21T07:03:19;2.83;;;1.67;;
31126;SDS011;17775;57.948;12.514;2023-03-21T07:05:45;2.40;;;1.60;;
31126;SDS011;17775;57.948;12.514;2023-03-21T07:08:11;3.13;;;1.60;;
31126;SDS011;17775;57.948;12.514;2023-03-21T07:10:40;3.95;;;2.65;;
31126;SDS011;17775;57.948;12.514;2023-03-21T07:13:10;5.30;;;2.20;;
31126;SDS011;17775;57.948;12.514;2023-03-21T07:15:37;2.88;;;1.50;;
31126;SDS011;17775;57.948;12.514;2023-03-21T07:18:04;3.72;;;1.75;;
31126;SDS011;17775;57.948;12.514;2023-03-21T07:20:30;3.42;;;1.85;;
31126;SDS011;17775;57.948;12.514;2023-03-21T07:22:57;3.60;;;1.98;;
31126;SDS011;17775;57.948;12.514;2023-03-21T07:25:24;4.07;;;2.60;;
31126;SDS011;17775;57.948;12.514;2023-03-21T07:27:50;5.05;;;2.60;;
31126;SDS011;17775;57.948;12.514;2023-03-21T07:30:17;5.30;;;2.75;;
31126;SDS011;17775;57.948;12.514;2023-03-21T07:32:44;4.72;;;2.55;;
31126;SDS011;17775;57.948;12.514;2023-03-21T07:35:14;3.88;;;2.33;;
31126;SDS011;17775;57.948;12.514;2023-03-21T07:37:41;5.68;;;3.10;;
31126;SDS011;17775;57.948;12.514;2023-03-21T07:40:08;6.63;;;3.10;;
31126;SDS011;17775;57.948;12.514;2023-03-21T07:42:35;5.03;;;2.70;;
31126;SDS011;17775;57.948;12.514;2023-03-21T07:45:02;8.32;;;4.32;;
31126;SDS011;17775;57.948;12.514;2023-03-21T07:47:30;8.90;;;6.13;;
31126;SDS011;17775;57.948;12.514;2023-03-21T07:49:57;8.25;;;4.97;;
31126;SDS011;17775;57.948;12.514;2023-03-21T07:52:23;6.07;;;3.10;;
31126;SDS011;17775;57.948;12.514;2023-03-21T07:54:50;5.95;;;3.30;;
31126;SDS011;17775;57.948;12.514;2023-03-21T07:57:17;4.90;;;2.95;;
31126;SDS011;17775;57.948;12.514;2023-03-21T07:59:43;5.78;;;3.08;;
31126;SDS011;17775;57.948;12.514;2023-03-21T08:02:16;5.22;;;2.90;;
31126;SDS011;17775;57.948;12.514;2023-03-21T08:04:42;4.45;;;3.00;;
31126;SDS011;17775;57.948;12.514;2023-03-21T08:07:09;5.65;;;2.70;;
31126;SDS011;17775;57.948;12.514;2023-03-21T08:09:36;4.72;;;2.28;;
31126;SDS011;17775;57.948;12.514;2023-03-21T08:12:03;3.85;;;2.45;;
31126;SDS011;17775;57.948;12.514;2023-03-21T08:14:30;3.83;;;2.15;;
31126;SDS011;17775;57.948;12.514;2023-03-21T08:16:56;4.68;;;2.15;;
31126;SDS011;17775;57.948;12.514;2023-03-21T08:19:23;4.88;;;2.28;;
31126;SDS011;17775;57.948;12.514;2023-03-21T08:21:49;3.05;;;1.92;;
31126;SDS011;17775;57.948;12.514;2023-03-21T08:24:17;3.30;;;1.90;;
31126;SDS011;17775;57.948;12.514;2023-03-21T08:26:43;3.85;;;2.42;;
31126;SDS011;17775;57.948;12.514;2023-03-21T08:29:14;4.22;;;2.53;;
31126;SDS011;17775;57.948;12.514;2023-03-21T08:31:41;4.27;;;2.40;;
31126;SDS011;17775;57.948;12.514;2023-03-21T08:34:07;3.67;;;2.40;;
31126;SDS011;17775;57.948;12.514;2023-03-21T08:36:34;4.28;;;3.15;;
31126;SDS011;17775;57.948;12.514;2023-03-21T08:39:02;3.03;;;1.95;;
31126;SDS011;17775;57.948;12.514;2023-03-21T08:41:35;3.57;;;1.90;;
31126;SDS011;17775;57.948;12.514;2023-03-21T08:44:03;3.22;;;2.53;;
31126;SDS011;17775;57.948;12.514;2023-03-21T08:46:31;3.45;;;2.00;;
31126;SDS011;17775;57.948;12.514;2023-03-21T08:48:57;3.88;;;1.95;;
31126;SDS011;17775;57.948;12.514;2023-03-21T08:51:24;2.22;;;1.80;;
31126;SDS011;17775;57.948;12.514;2023-03-21T08:53:51;2.45;;;1.85;;
31126;SDS011;17775;57.948;12.514;2023-03-21T08:56:17;5.50;;;1.98;;
31126;SDS011;17775;57.948;12.514;2023-03-21T08:58:44;3.28;;;1.85;;
31126;SDS011;17775;57.948;12.514;2023-03-21T09:01:11;2.45;;;1.63;;
31126;SDS011;17775;57.948;12.514;2023-03-21T09:03:41;9.23;;;3.15;;
31126;SDS011;17775;57.948;12.514;2023-03-21T09:06:08;4.05;;;1.83;;
31126;SDS011;17775;57.948;12.514;2023-03-21T09:08:37;11.88;;;2.88;;
31126;SDS011;17775;57.948;12.514;2023-03-21T09:11:03;15.27;;;5.95;;
31126;SDS011;17775;57.948;12.514;2023-03-21T09:13:30;19.30;;;6.80;;
31126;SDS011;17775;57.948;12.514;2023-03-21T09:15:56;9.40;;;4.28;;
31126;SDS011;17775;57.948;12.514;2023-03-21T09:18:26;5.78;;;2.72;;
31126;SDS011;17775;57.948;12.514;2023-03-21T09:21:14;5.10;;;2.22;;
31126;SDS011;17775;57.948;12.514;2023-03-21T09:23:42;2.85;;;1.98;;
31126;SDS011;17775;57.948;12.514;2023-03-21T09:26:10;2.83;;;2.00;;
31126;SDS011;17775;57.948;12.514;2023-03-21T09:28:37;4.28;;;1.80;;
31126;SDS011;17775;57.948;12.514;2023-03-21T09:31:04;3.13;;;1.98;;
31126;SDS011;17775;57.948;12.514;2023-03-21T09:33:31;2.88;;;1.83;;
31126;SDS011;17775;57.948;12.514;2023-03-21T09:35:58;5.18;;;2.10;;
31126;SDS011;17775;57.948;12.514;2023-03-21T09:38:25;4.07;;;2.00;;
31126;SDS011;17775;57.948;12.514;2023-03-21T09:41:04;3.28;;;2.08;;
31126;SDS011;17775;57.948;12.514;2023-03-21T09:43:39;3.13;;;2.20;;
31126;SDS011;17775;57.948;12.514;2023-03-21T09:46:16;4.65;;;2.50;;
31126;SDS011;17775;57.948;12.514;2023-03-21T09:49:03;8.55;;;3.70;;
31126;SDS011;17775;57.948;12.514;2023-03-21T09:51:38;2.27;;;1.87;;
31126;SDS011;17775;57.948;12.514;2023-03-21T09:54:07;2.50;;;1.73;;
31126;SDS011;17775;57.948;12.514;2023-03-21T09:56:38;5.00;;;2.33;;
31126;SDS011;17775;57.948;12.514;2023-03-21T09:59:06;2.67;;;1.70;;
31126;SDS011;17775;57.948;12.514;2023-03-21T10:01:34;3.28;;;1.40;;
31126;SDS011;17775;57.948;12.514;2023-03-21T10:04:09;2.78;;;1.60;;
31126;SDS011;17775;57.948;12.514;2023-03-21T10:06:37;2.78;;;1.42;;
31126;SDS011;17775;57.948;12.514;2023-03-21T10:09:16;2.78;;;1.73;;
31126;SDS011;17775;57.948;12.514;2023-03-21T10:11:49;2.17;;;1.45;;
31126;SDS011;17775;57.948;12.514;2023-03-21T10:16:59;2.42;;;1.40;;
31126;SDS011;17775;57.948;12.514;2023-03-21T10:19:28;2.83;;;1.48;;
31126;SDS011;17775;57.948;12.514;2023-03-21T10:21:54;4.63;;;2.00;;
31126;SDS011;17775;57.948;12.514;2023-03-21T10:24:28;2.40;;;1.48;;
31126;SDS011;17775;57.948;12.514;2023-03-21T10:26:54;2.08;;;1.38;;
31126;SDS011;17775;57.948;12.514;2023-03-21T10:29:23;2.92;;;1.85;;
31126;SDS011;17775;57.948;12.514;2023-03-21T10:31:50;2.72;;;1.50;;
31126;SDS011;17775;57.948;12.514;2023-03-21T10:34:19;2.55;;;1.50;;
31126;SDS011;17775;57.948;12.514;2023-03-21T10:36:47;3.40;;;2.07;;
31126;SDS011;17775;57.948;12.514;2023-03-21T10:39:23;4.40;;;1.50;;
31126;SDS011;17775;57.948;12.514;2023-03-21T10:41:51;2.78;;;1.63;;
31126;SDS011;17775;57.948;12.514;2023-03-21T10:44:18;4.05;;;1.90;;
31126;SDS011;17775;57.948;12.514;2023-03-21T10:46:56;4.15;;;1.77;;
31126;SDS011;17775;57.948;12.514;2023-03-21T10:49:23;3.63;;;2.38;;
31126;SDS011;17775;57.948;12.514;2023-03-21T10:51:56;4.07;;;2.22;;
31126;SDS011;17775;57.948;12.514;2023-03-21T10:54:25;2.97;;;1.83;;
31126;SDS011;17775;57.948;12.514;2023-03-21T10:59:19;3.95;;;2.08;;
31126;SDS011;17775;57.948;12.514;2023-03-21T11:01:49;4.53;;;2.40;;
31126;SDS011;17775;57.948;12.514;2023-03-21T11:04:20;3.17;;;1.95;;
31126;SDS011;17775;57.948;12.514;2023-03-21T11:06:58;6.07;;;2.13;;
31126;SDS011;17775;57.948;12.514;2023-03-21T11:09:47;5.20;;;2.80;;
31126;SDS011;17775;57.948;12.514;2023-03-21T11:12:18;15.15;;;6.55;;
31126;SDS011;17775;57.948;12.514;2023-03-21T11:14:54;4.45;;;2.65;;
31126;SDS011;17775;57.948;12.514;2023-03-21T11:17:28;6.47;;;2.70;;
31126;SDS011;17775;57.948;12.514;2023-03-21T11:19:56;4.50;;;2.28;;
31126;SDS011;17775;57.948;12.514;2023-03-21T11:22:24;8.10;;;2.45;;
31126;SDS011;17775;57.948;12.514;2023-03-21T11:24:52;4.80;;;2.20;;
31126;SDS011;17775;57.948;12.514;2023-03-21T11:27:19;5.25;;;1.90;;
31126;SDS011;17775;57.948;12.514;2023-03-21T11:29:47;5.05;;;1.85;;
31126;SDS011;17775;57.948;12.514;2023-03-21T11:34:50;2.75;;;1.73;;
31126;SDS011;17775;57.948;12.514;2023-03-21T11:39:55;5.00;;;2.13;;
31126;SDS011;17775;57.948;12.514;2023-03-21T11:42:39;4.72;;;2.30;;
31126;SDS011;17775;57.948;12.514;2023-03-21T11:45:11;4.60;;;1.77;;
31126;SDS011;17775;57.948;12.514;2023-03-21T11:47:39;6.53;;;2.17;;
31126;SDS011;17775;57.948;12.514;2023-03-21T11:52:47;6.15;;;1.98;;
31126;SDS011;17775;57.948;12.514;2023-03-21T12:05:57;4.25;;;1.95;;
31126;SDS011;17775;57.948;12.514;2023-03-21T12:08:36;3.35;;;1.70;;
31126;SDS011;17775;57.948;12.514;2023-03-21T12:11:13;4.10;;;1.40;;
31126;SDS011;17775;57.948;12.514;2023-03-21T12:13:59;3.90;;;1.60;;
31126;SDS011;17775;57.948;12.514;2023-03-21T12:16:33;2.75;;;1.60;;
31126;SDS011;17775;57.948;12.514;2023-03-21T12:21:51;2.88;;;1.45;;
31126;SDS011;17775;57.948;12.514;2023-03-21T12:39:51;2.92;;;1.40;;
31126;SDS011;17775;57.948;12.514;2023-03-21T12:42:28;2.97;;;1.30;;
31126;SDS011;17775;57.948;12.514;2023-03-21T12:45:01;4.55;;;1.55;;
31126;SDS011;17775;57.948;12.514;2023-03-21T12:47:40;2.85;;;1.70;;
31126;SDS011;17775;57.948;12.514;2023-03-21T12:50:12;3.38;;;1.38;;
31126;SDS011;17775;57.948;12.514;2023-03-21T12:52:45;4.18;;;1.20;;
31126;SDS011;17775;57.948;12.514;2023-03-21T12:55:20;6.05;;;1.70;;
31126;SDS011;17775;57.948;12.514;2023-03-21T12:57:48;3.22;;;1.30;;
31126;SDS011;17775;57.948;12.514;2023-03-21T13:01:06;2.83;;;1.20;;
31126;SDS011;17775;57.948;12.514;2023-03-21T13:03:14;3.27;;;1.20;;
31126;SDS011;17775;57.948;12.514;2023-03-21T13:05:55;4.30;;;1.55;;
31126;SDS011;17775;57.948;12.514;2023-03-21T13:11:05;6.85;;;1.70;;
31126;SDS011;17775;57.948;12.514;2023-03-21T13:16:09;2.20;;;1.02;;
31126;SDS011;17775;57.948;12.514;2023-03-21T13:26:32;4.60;;;1.85;;
31126;SDS011;17775;57.948;12.514;2023-03-21T13:29:02;4.85;;;1.20;;
31126;SDS011;17775;57.948;12.514;2023-03-21T13:31:39;9.68;;;2.25;;
31126;SDS011;17775;57.948;12.514;2023-03-21T13:34:19;4.00;;;1.52;;
31126;SDS011;17775;57.948;12.514;2023-03-21T13:36:47;7.00;;;1.50;;
31126;SDS011;17775;57.948;12.514;2023-03-21T13:39:20;6.85;;;1.10;;
31126;SDS011;17775;57.948;12.514;2023-03-21T13:41:49;2.75;;;0.80;;
31126;SDS011;17775;57.948;12.514;2023-03-21T13:46:43;2.25;;;1.05;;
31126;SDS011;17775;57.948;12.514;2023-03-21T13:49:26;2.40;;;0.90;;
31126;SDS011;17775;57.948;12.514;2023-03-21T13:51:54;3.28;;;2.30;;
31126;SDS011;17775;57.948;12.514;2023-03-21T13:57:04;4.40;;;1.92;;
31126;SDS011;17775;57.948;12.514;2023-03-21T13:59:40;3.80;;;1.38;;
31126;SDS011;17775;57.948;12.514;2023-03-21T14:04:45;2.33;;;0.90;;
31126;SDS011;17775;57.948;12.514;2023-03-21T14:07:31;5.55;;;1.10;;
31126;SDS011;17775;57.948;12.514;2023-03-21T14:10:02;4.63;;;1.05;;
31126;SDS011;17775;57.948;12.514;2023-03-21T14:12:39;3.25;;;0.90;;
31126;SDS011;17775;57.948;12.514;2023-03-21T14:15:07;2.50;;;1.00;;
31126;SDS011;17775;57.948;12.514;2023-03-21T14:23:20;4.03;;;1.35;;
31126;SDS011;17775;57.948;12.514;2023-03-21T14:25:46;4.22;;;1.08;;
31126;SDS011;17775;57.948;12.514;2023-03-21T14:28:16;3.65;;;0.80;;
31126;SDS011;17775;57.948;12.514;2023-03-21T14:30:43;2.78;;;1.02;;
31126;SDS011;17775;57.948;12.514;2023-03-21T14:33:19;7.60;;;1.40;;
31126;SDS011;17775;57.948;12.514;2023-03-21T14:35:47;3.75;;;1.50;;
31126;SDS011;17775;57.948;12.514;2023-03-21T14:38:33;3.58;;;1.00;;
31126;SDS011;17775;57.948;12.514;2023-03-21T14:41:02;3.92;;;1.00;;
31126;SDS011;17775;57.948;12.514;2023-03-21T14:43:29;2.92;;;1.05;;
31126;SDS011;17775;57.948;12.514;2023-03-21T14:45:59;2.70;;;1.10;;
31126;SDS011;17775;57.948;12.514;2023-03-21T14:48:29;5.85;;;2.38;;
31126;SDS011;17775;57.948;12.514;2023-03-21T14:50:57;6.03;;;3.05;;
31126;SDS011;17775;57.948;12.514;2023-03-21T14:53:27;6.25;;;3.30;;
31126;SDS011;17775;57.948;12.514;2023-03-21T14:55:59;4.80;;;2.35;;
31126;SDS011;17775;57.948;12.514;2023-03-21T14:58:29;4.93;;;1.70;;
31126;SDS011;17775;57.948;12.514;2023-03-21T15:00:57;6.00;;;1.42;;
31126;SDS011;17775;57.948;12.514;2023-03-21T15:03:25;3.33;;;1.35;;
31126;SDS011;17775;57.948;12.514;2023-03-21T15:05:53;5.05;;;1.33;;
31126;SDS011;17775;57.948;12.514;2023-03-21T15:08:21;3.67;;;1.05;;
31126;SDS011;17775;57.948;12.514;2023-03-21T15:10:56;2.13;;;1.00;;
31126;SDS011;17775;57.948;12.514;2023-03-21T15:13:36;3.17;;;1.05;;
31126;SDS011;17775;57.948;12.514;2023-03-21T15:16:05;4.15;;;1.13;;
31126;SDS011;17775;57.948;12.514;2023-03-21T15:18:33;2.65;;;1.15;;
31126;SDS011;17775;57.948;12.514;2023-03-21T15:21:03;7.75;;;1.38;;
31126;SDS011;17775;57.948;12.514;2023-03-21T15:23:33;3.78;;;1.13;;
31126;SDS011;17775;57.948;12.514;2023-03-21T15:26:01;4.40;;;0.80;;
31126;SDS011;17775;57.948;12.514;2023-03-21T15:28:28;3.67;;;1.25;;
31126;SDS011;17775;57.948;12.514;2023-03-21T15:30:55;3.58;;;0.98;;
31126;SDS011;17775;57.948;12.514;2023-03-21T15:33:22;1.00;;;0.80;;
31126;SDS011;17775;57.948;12.514;2023-03-21T15:35:56;2.35;;;0.80;;
31126;SDS011;17775;57.948;12.514;2023-03-21T15:38:33;1.17;;;0.80;;
31126;SDS011;17775;57.948;12.514;2023-03-21T15:43:41;10.45;;;1.10;;
31126;SDS011;17775;57.948;12.514;2023-03-21T15:46:15;1.92;;;0.98;;
31126;SDS011;17775;57.948;12.514;2023-03-21T15:48:42;5.53;;;1.00;;
31126;SDS011;17775;57.948;12.514;2023-03-21T15:51:10;3.58;;;1.02;;
31126;SDS011;17775;57.948;12.514;2023-03-21T15:53:39;4.50;;;0.82;;
31126;SDS011;17775;57.948;12.514;2023-03-21T15:56:08;2.05;;;0.70;;
31126;SDS011;17775;57.948;12.514;2023-03-21T15:58:42;3.63;;;1.35;;
31126;SDS011;17775;57.948;12.514;2023-03-21T16:01:19;0.95;;;0.60;;
31126;SDS011;17775;57.948;12.514;2023-03-21T16:03:48;3.67;;;0.80;;
31126;SDS011;17775;57.948;12.514;2023-03-21T16:06:16;3.22;;;0.77;;
31126;SDS011;17775;57.948;12.514;2023-03-21T16:11:24;0.60;;;0.50;;
31126;SDS011;17775;57.948;12.514;2023-03-21T16:13:51;2.20;;;0.60;;
31126;SDS011;17775;57.948;12.514;2023-03-21T16:16:19;1.88;;;0.70;;
31126;SDS011;17775;57.948;12.514;2023-03-21T16:18:46;1.95;;;0.65;;
31126;SDS011;17775;57.948;12.514;2023-03-21T16:21:14;4.05;;;0.70;;
31126;SDS011;17775;57.948;12.514;2023-03-21T16:23:41;2.70;;;0.70;;
31126;SDS011;17775;57.948;12.514;2023-03-21T16:26:12;2.22;;;0.70;;
31126;SDS011;17775;57.948;12.514;2023-03-21T16:28:39;2.65;;;0.70;;
31126;SDS011;17775;57.948;12.514;2023-03-21T16:31:07;2.13;;;1.02;;
31126;SDS011;17775;57.948;12.514;2023-03-21T16:33:34;1.73;;;0.73;;
31126;SDS011;17775;57.948;12.514;2023-03-21T16:36:04;2.40;;;0.90;;
31126;SDS011;17775;57.948;12.514;2023-03-21T16:38:32;1.90;;;0.90;;
31126;SDS011;17775;57.948;12.514;2023-03-21T16:40:58;4.38;;;0.88;;
31126;SDS011;17775;57.948;12.514;2023-03-21T16:43:29;8.57;;;1.00;;
31126;SDS011;17775;57.948;12.514;2023-03-21T16:45:55;1.80;;;0.88;;
31126;SDS011;17775;57.948;12.514;2023-03-21T16:48:22;1.58;;;0.90;;
31126;SDS011;17775;57.948;12.514;2023-03-21T16:50:49;3.30;;;0.88;;
31126;SDS011;17775;57.948;12.514;2023-03-21T16:53:15;2.08;;;0.93;;
31126;SDS011;17775;57.948;12.514;2023-03-21T16:55:42;1.77;;;0.90;;